createdAt,value
2023-03-17T00:01:24.366Z,9.2
2023-03-17T00:11:25.969Z,9
2023-03-17T00:21:27.987Z,9
2023-03-17T00:31:30.413Z,8.9
2023-03-17T00:41:32.682Z,8.9
2023-03-17T01:01:37.130Z,9.6
2023-03-17T01:11:39.384Z,9.8
2023-03-17T01:31:43.743Z,10.2
2023-03-17T01:41:46.106Z,10.3
2023-03-17T01:51:48.602Z,10.2
2023-03-17T02:01:51.040Z,9.9
2023-03-17T02:11:52.990Z,9.9
2023-03-17T02:21:55.507Z,9.9
2023-03-17T02:31:57.699Z,9.7
2023-03-17T02:42:00.367Z,9.6
2023-03-17T02:52:02.974Z,9.5
2023-03-17T03:02:04.770Z,9.2
2023-03-17T03:12:06.930Z,9.3
2023-03-17T03:22:08.821Z,9.2
2023-03-17T03:32:11.195Z,8.9
2023-03-17T03:42:13.126Z,9.1
2023-03-17T03:52:14.901Z,8.9
2023-03-17T04:02:17.002Z,8.6
2023-03-17T04:12:19.477Z,8.4
2023-03-17T04:22:21.246Z,8.4
2023-03-17T04:32:24.043Z,8.4
2023-03-17T04:52:27.093Z,8.2
2023-03-17T05:02:29.457Z,8.2
2023-03-17T05:12:31.891Z,8.6
2023-03-17T05:22:34.293Z,9.2
2023-03-17T05:32:36.587Z,9.5
2023-03-17T05:42:38.402Z,9.5
2023-03-17T05:52:40.143Z,9.4
2023-03-17T06:02:41.929Z,9.4
2023-03-17T06:12:44.491Z,9.4
2023-03-17T06:23:02.568Z,9.4
2023-03-17T06:32:49.304Z,9.4
2023-03-17T06:42:51.778Z,9.5
2023-03-17T06:52:53.715Z,9.7
2023-03-17T07:02:55.925Z,9.8
2023-03-17T07:12:58.559Z,9.9
2023-03-17T07:23:01.174Z,10.1
2023-03-17T07:33:03.185Z,10.4
2023-03-17T07:43:05.080Z,10.8
2023-03-17T07:53:07.385Z,11.2
2023-03-17T08:03:11.003Z,11.6
2023-03-17T08:13:12.487Z,11.9
2023-03-17T08:23:14.511Z,12.1
2023-03-17T08:33:16.423Z,12.3
2023-03-17T08:43:18.618Z,12.6
2023-03-17T08:53:20.814Z,13
2023-03-17T09:03:23.050Z,13.2
2023-03-17T09:13:25.318Z,13.4
2023-03-17T09:23:27.332Z,13.7
2023-03-17T09:33:29.325Z,14
2023-03-17T09:43:31.541Z,14.1
2023-03-17T09:53:34.000Z,14.3
2023-03-17T10:03:36.391Z,14.5
2023-03-17T10:13:38.195Z,14.6
2023-03-17T10:23:40.011Z,15.2
2023-03-17T10:33:42.505Z,15.3
2023-03-17T10:43:44.850Z,15.6
2023-03-17T10:53:46.833Z,15.9
2023-03-17T11:03:49.073Z,15.9
2023-03-17T11:23:53.105Z,15.9
2023-03-17T11:43:56.750Z,16.5
2023-03-17T11:53:58.781Z,16.7
2023-03-17T12:04:00.837Z,17.1
2023-03-17T12:14:03.083Z,17
2023-03-17T12:24:05.291Z,17.3
2023-03-17T12:34:07.162Z,17.4
2023-03-17T12:44:09.478Z,17.6
2023-03-17T12:54:11.748Z,17.9
2023-03-17T13:04:13.892Z,17.6
2023-03-17T13:14:16.328Z,17.7
2023-03-17T13:24:18.673Z,17.8
2023-03-17T13:34:20.798Z,17.9
2023-03-17T13:44:23.266Z,17.9
2023-03-17T13:54:25.699Z,17.9
2023-03-17T14:04:27.803Z,18
2023-03-17T14:14:32.748Z,17.8
2023-03-17T14:24:31.404Z,17.8
2023-03-17T14:34:33.993Z,17.7
2023-03-17T14:44:35.926Z,17.7
2023-03-17T14:54:37.722Z,17.7
2023-03-17T15:04:39.726Z,17.7
2023-03-17T15:24:44.324Z,17.7
2023-03-17T15:34:46.827Z,17.6
2023-03-17T15:44:49.399Z,17.2
2023-03-17T15:54:51.609Z,17.1
2023-03-17T16:04:53.428Z,16.8
2023-03-17T16:14:56.007Z,16.7
2023-03-17T16:17:50.511Z,16.7
2023-03-17T16:35:10.420Z,16.5
2023-03-17T16:45:12.780Z,16.4
2023-03-17T16:55:14.529Z,16.3
2023-03-17T17:05:16.798Z,16.2
2023-03-17T17:15:19.376Z,15.9
2023-03-17T17:25:21.228Z,15.6
2023-03-17T17:35:23.342Z,15.4
2023-03-17T17:55:27.674Z,15.1
2023-03-17T18:05:29.442Z,15
2023-03-17T18:15:32.019Z,14.9
2023-03-17T18:25:34.461Z,14.7
2023-03-17T18:35:36.619Z,14.6
2023-03-17T18:45:39.195Z,14.5
2023-03-17T18:55:41.090Z,14.4
2023-03-17T19:05:42.721Z,14.3
2023-03-17T19:15:44.656Z,14.2
2023-03-17T19:25:46.981Z,14.1
2023-03-17T19:35:49.111Z,14
2023-03-17T19:45:51.007Z,13.9
2023-03-17T20:15:58.007Z,13.9
2023-03-17T20:25:59.777Z,13.8
2023-03-17T20:36:01.778Z,13.8
2023-03-17T20:46:03.779Z,13.8
2023-03-17T20:56:06.472Z,13.7
2023-03-17T21:06:08.301Z,13.8
2023-03-17T21:16:10.127Z,13.8
2023-03-17T21:26:12.773Z,13.7
2023-03-17T21:36:15.344Z,13.6
2023-03-17T21:46:17.640Z,13.5
2023-03-17T22:06:21.258Z,13.2
2023-03-17T22:16:23.054Z,13.1
2023-03-17T22:26:25.139Z,13
2023-03-17T22:36:27.824Z,13
2023-03-17T22:46:30.461Z,13
2023-03-17T22:56:32.698Z,13
2023-03-17T23:06:34.602Z,13.1
2023-03-17T23:16:36.748Z,13
2023-03-17T23:26:38.771Z,13.1
2023-03-17T23:36:40.808Z,13
2023-03-17T23:46:42.774Z,13
2023-03-17T23:56:44.770Z,12.9
